Antonito, Colorado
Current Conditions -  °F | °C
As of 9:52 PM on Wednesday 26 Nov 2014 (Local Time) from KALS Reporting Station
Clear Clear  
Wind Chill: 15°   Ceiling: Unl
Heat Index: 21°   Visibility: 10mi
Dew Point: 16°   Wind: 5mph
Humidity: 81%   Direction: 170°S
Pressure: 30.44"   Gusts: NA
Location:  37.08°N, 106.01°W
Report Text: KALS 270452Z AUTO 17004KT 10SM CLR M06/M09 A3044 RMK AO2 SLP327 T10611089
Loading
Personal Weather Stations






























Interactive Weather Map New forecast layout! Learn more

10-Day Weather Forecast

Advertisements
Track Severe Weather on mobile